Time;durP1;ratioP1;P1;durP2;ratioP2;P2;SDS_P1;SDS_P2;PMS_P1;PMS_P2;Temp;Humidity;BMP_temperature;BMP_pressure;BME280_temperature;BME280_humidity;BME280_pressure;Samples;Min_cycle;Max_cycle;Signal;HPM_P1;HPM_P2
2024/03/03 00:01:21;;;;;;;0.20;0.20;;;;;;;9.04;100.00;74743.13;4831633;29;20026;-86
2024/03/03 00:04:23;;;;;;;0.20;0.20;;;;;;;9.27;100.00;74767.84;4831261;29;20031;-85
2024/03/03 00:08:04;;;;;;;0.20;0.20;;;;;;;9.07;100.00;74746.72;4847412;29;20064;-86
2024/03/03 00:10:52;;;;;;;0.20;0.20;;;;;;;8.90;100.00;74727.63;4846796;29;20056;-85
2024/03/03 00:13:39;;;;;;;0.20;0.20;;;;;;;9.28;100.00;74768.44;4831680;29;20042;-87
2024/03/03 00:17:14;;;;;;;0.20;0.20;;;;;;;9.21;100.00;74766.19;4859690;29;20061;-87
2024/03/03 00:23:52;;;;;;;0.20;0.20;;;;;;;9.24;100.00;74761.50;4884074;29;20040;-86
2024/03/03 00:26:43;;;;;;;0.20;0.20;;;;;;;9.14;100.00;74757.84;4880969;29;20041;-87
2024/03/03 00:32:54;;;;;;;;;;;;;;;9.29;100.00;74775.75;4865084;29;20037;-87
2024/03/03 00:35:58;;;;;;;0.20;0.20;;;;;;;9.38;100.00;74783.13;4849714;29;19921;-87
2024/03/03 00:39:32;;;;;;;0.20;0.20;;;;;;;9.28;100.00;74768.44;4882442;29;20173;-86
2024/03/03 00:42:58;;;;;;;0.20;0.20;;;;;;;9.32;100.00;74776.56;4881761;29;20311;-87
2024/03/03 00:46:26;;;;;;;0.28;0.28;;;;;;;9.32;100.00;74773.81;4885592;29;20053;-87
2024/03/03 00:49:50;;;;;;;0.20;0.20;;;;;;;9.14;100.00;74752.91;4866398;29;20079;-86
2024/03/03 00:52:57;;;;;;;0.20;0.20;;;;;;;9.08;100.00;74747.91;4869154;29;20069;-87
2024/03/03 00:56:14;;;;;;;0.20;0.20;;;;;;;8.79;100.00;74709.00;4881370;29;20045;-85
2024/03/03 01:02:50;;;;;;;0.20;0.20;;;;;;;8.86;100.00;74720.09;4850099;29;20080;-87
2024/03/03 01:09:41;;;;;;;0.20;0.20;;;;;;;8.54;100.00;74681.94;5169544;23;20041;-86
2024/03/03 01:12:53;;;;;;;0.20;0.20;;;;;;;8.54;100.00;74676.41;4866197;29;20050;-86
2024/03/03 01:16:01;;;;;;;0.20;0.20;;;;;;;8.74;100.00;74705.78;4863988;29;20038;-87
2024/03/03 01:19:04;;;;;;;0.20;0.20;;;;;;;8.87;100.00;74726.22;4851239;29;20037;-86
2024/03/03 01:33:50;;;;;;;0.20;0.20;;;;;;;8.66;100.00;74701.75;4871588;29;20056;-88
2024/03/03 01:36:55;;;;;;;0.20;0.20;;;;;;;8.88;100.00;74722.47;4853211;29;20057;-87
2024/03/03 01:49:40;;;;;;;0.20;0.20;;;;;;;8.78;100.00;74710.53;4887116;29;20036;-86
2024/03/03 01:52:47;;;;;;;0.20;0.20;;;;;;;8.25;100.00;74647.91;4867228;29;20029;-86
2024/03/03 01:56:15;;;;;;;0.20;0.20;;;;;;;8.22;100.00;74647.09;4887185;29;20037;-86
2024/03/03 01:59:42;;;;;;;0.20;0.20;;;;;;;8.04;100.00;74623.44;4855186;29;20029;-86
2024/03/03 02:05:42;;;;;;;0.20;0.20;;;;;;;8.25;100.00;74645.72;4961987;23;20065;-86
2024/03/03 02:39:01;;;;;;;0.30;0.30;;;;;;;8.36;100.00;74658.28;4946225;23;20074;-85
2024/03/03 02:45:09;;;;;;;0.20;0.20;;;;;;;8.18;100.00;74645.66;4867512;29;20553;-86
2024/03/03 03:03:09;;;;;;;0.30;0.30;;;;;;;8.07;100.00;74629.78;4922820;29;20352;-85
2024/03/03 03:16:19;;;;;;;0.20;0.20;;;;;;;8.39;100.00;74667.97;4860619;29;20045;-86
2024/03/03 03:19:50;;;;;;;0.20;0.20;;;;;;;8.24;100.00;74650.06;4807682;29;20031;-85
2024/03/03 03:23:09;;;;;;;0.20;0.20;;;;;;;8.21;100.00;74643.13;4788713;29;20051;-86
2024/03/03 04:03:15;;;;;;;0.20;0.20;;;;;;;8.16;100.00;74642.69;5087837;23;20053;-86
2024/03/03 04:10:17;;;;;;;0.20;0.20;;;;;;;8.00;100.00;74618.69;4843033;29;20028;-88
2024/03/03 04:13:47;;;;;;;0.30;0.30;;;;;;;8.06;100.00;74628.59;4831197;29;20030;-87
2024/03/03 04:17:33;;;;;;;0.20;0.20;;;;;;;8.03;100.00;74622.25;4833077;29;20060;-87
2024/03/03 04:25:33;;;;;;;0.30;0.30;;;;;;;7.92;100.00;74617.41;4958388;24;20078;-85
2024/03/03 04:29:24;;;;;;;0.20;0.20;;;;;;;7.60;100.00;74572.78;4846046;29;20046;-85
2024/03/03 04:32:43;;;;;;;0.30;0.30;;;;;;;7.91;100.00;74613.47;4821849;29;20042;-85
2024/03/03 04:35:42;;;;;;;0.20;0.20;;;;;;;7.74;100.00;74593.78;4842028;29;20038;-85
2024/03/03 04:38:43;;;;;;;0.20;0.20;;;;;;;7.65;100.00;74580.88;4825417;29;20065;-85
2024/03/03 04:42:13;;;;;;;0.20;0.20;;;;;;;7.72;100.00;74585.88;4850412;29;20576;-85
2024/03/03 04:56:43;;;;;;;0.20;0.20;;;;;;;7.75;100.00;74592.81;4519603;27;20045;-87
2024/03/03 05:00:00;;;;;;;0.20;0.20;;;;;;;7.35;100.00;74546.34;4884101;29;20109;-86
2024/03/03 05:18:34;;;;;;;0.20;0.20;;;;;;;7.61;100.00;74576.13;4972335;23;20048;-86
2024/03/03 05:21:39;;;;;;;0.20;0.20;;;;;;;7.85;100.00;74601.41;4891979;29;20048;-86
2024/03/03 05:24:24;;;;;;;0.30;0.30;;;;;;;7.77;100.00;74594.59;4869409;29;20029;-86
2024/03/03 05:27:12;;;;;;;0.30;0.30;;;;;;;7.81;100.00;74599.97;4884940;29;20105;-86
2024/03/03 05:30:03;;;;;;;0.20;0.20;;;;;;;7.47;100.00;74562.78;4876923;29;20045;-87
2024/03/03 05:33:12;;;;;;;;;;;;;;;7.82;100.00;74603.91;4894814;29;20065;-87
2024/03/03 05:36:11;;;;;;;0.20;0.20;;;;;;;7.86;100.00;74603.19;4894695;29;19945;-85
2024/03/03 06:10:24;;;;;;;0.30;0.30;;;;;;;11.57;97.05;75036.66;4942838;29;20046;-86
2024/03/03 06:13:17;;;;;;;0.20;0.20;;;;;;;11.87;92.74;75069.75;4937154;29;20035;-86
2024/03/03 06:16:28;;;;;;;0.20;0.20;;;;;;;11.43;94.32;75023.88;4875191;29;20032;-87
2024/03/03 06:19:38;;;;;;;0.20;0.20;;;;;;;11.55;95.17;75032.66;4891868;29;20081;-87
2024/03/03 06:22:55;;;;;;;0.20;0.20;;;;;;;11.40;93.71;75017.53;4923084;29;20041;-86
2024/03/03 06:25:41;;;;;;;0.20;0.20;;;;;;;11.98;90.33;75085.69;4919479;29;20043;-87
2024/03/03 06:28:58;;;;;;;0.30;0.30;;;;;;;12.74;87.20;75174.22;4922357;29;20064;-88
2024/03/03 06:31:45;;;;;;;0.20;0.20;;;;;;;12.92;85.82;75192.97;4906175;29;20036;-86
2024/03/03 06:34:14;;;;;;;0.20;0.20;;;;;;;13.01;84.41;75200.97;4887795;29;20047;-86
2024/03/03 06:36:40;;;;;;;0.20;0.20;;;;;;;13.21;80.43;75229.25;4889461;29;20100;-86
2024/03/03 06:39:14;;;;;;;0.20;0.20;;;;;;;14.41;77.01;75371.16;4895825;29;20028;-85
2024/03/03 06:41:44;;;;;;;0.20;0.20;;;;;;;14.56;73.41;75388.56;4912502;29;20043;-86
2024/03/03 06:44:11;;;;;;;0.20;0.20;;;;;;;15.03;72.33;75443.69;4913763;29;20036;-86
2024/03/03 06:46:43;;;;;;;0.22;0.22;;;;;;;15.60;68.67;75502.44;4916772;29;20080;-87
2024/03/03 06:49:09;;;;;;;0.20;0.20;;;;;;;16.21;66.90;75577.19;4915541;29;20063;-86
2024/03/03 06:51:38;;;;;;;0.20;0.20;;;;;;;16.39;64.23;75603.16;4932717;29;20030;-85
2024/03/03 06:54:07;;;;;;;0.20;0.20;;;;;;;16.77;61.72;75639.78;4935827;29;20079;-85
2024/03/03 06:57:22;;;;;;;0.20;0.20;;;;;;;16.25;64.20;75581.41;4936904;29;20024;-86
2024/03/03 07:00:09;;;;;;;0.20;0.20;;;;;;;16.66;60.95;75634.94;4866093;29;20022;-88
2024/03/03 07:05:49;;;;;;;0.20;0.20;;;;;;;16.92;58.64;75659.97;4825425;29;20131;-87
2024/03/03 07:08:43;;;;;;;0.20;0.20;;;;;;;17.51;57.80;75729.56;4845892;29;20038;-87
2024/03/03 07:15:46;;;;;;;0.20;0.20;;;;;;;16.86;55.99;75647.78;4844429;29;20102;-87
2024/03/03 07:19:01;;;;;;;0.20;0.20;;;;;;;16.93;55.90;75661.78;4847711;29;20106;-87
2024/03/03 07:22:02;;;;;;;0.20;0.20;;;;;;;17.95;54.25;75784.00;4846222;29;20028;-86
2024/03/03 07:28:41;;;;;;;0.20;0.20;;;;;;;17.62;53.13;75742.19;4848131;29;20063;-87
2024/03/03 07:31:50;;;;;;;0.20;0.20;;;;;;;15.94;58.78;75545.41;4877912;29;20052;-87
2024/03/03 07:35:42;;;;;;;0.20;0.20;;;;;;;16.59;57.48;75624.34;4900410;29;20023;-86
2024/03/03 07:39:31;;;;;;;0.20;0.20;;;;;;;15.98;58.73;75547.44;4903358;29;20033;-86
2024/03/03 07:42:54;;;;;;;0.20;0.20;;;;;;;15.45;62.71;75487.25;4887991;29;20050;-87
2024/03/03 07:45:39;;;;;;;0.20;0.20;;;;;;;15.04;64.67;75441.50;4849982;29;20028;-86
2024/03/03 07:48:21;;;;;;;0.20;0.20;;;;;;;15.54;65.75;75497.44;4873818;29;20037;-86
2024/03/03 07:50:49;;;;;;;0.20;0.20;;;;;;;15.06;68.14;75444.47;4883918;29;20037;-87
2024/03/03 07:53:32;;;;;;;0.20;0.20;;;;;;;14.12;73.02;75334.25;4899490;29;20037;-86
2024/03/03 07:56:39;;;;;;;0.20;0.20;;;;;;;13.78;75.72;75293.53;4916220;29;20093;-86
2024/03/03 07:59:28;;;;;;;0.20;0.20;;;;;;;14.19;77.18;75338.66;4914217;29;20040;-87
2024/03/03 08:02:32;;;;;;;0.20;0.20;;;;;;;14.23;77.35;75349.63;4903220;29;20036;-86
2024/03/03 08:05:05;;;;;;;;;;;;;;;14.10;78.20;75331.84;4919215;29;20012;-86
2024/03/03 08:08:02;;;;;;;0.20;0.20;;;;;;;13.89;78.28;75307.31;4919128;29;19990;-86
2024/03/03 08:11:02;;;;;;;0.20;0.20;;;;;;;14.03;76.77;75323.47;4891871;29;20104;-86
2024/03/03 08:13:33;;;;;;;0.20;0.20;;;;;;;14.07;76.33;75325.50;4919230;29;20036;-86
2024/03/03 08:16:06;;;;;;;0.20;0.20;;;;;;;13.78;78.60;75296.31;4897555;29;20112;-87
2024/03/03 08:19:17;;;;;;;0.20;0.20;;;;;;;13.31;78.93;75233.50;4878276;29;20024;-87
2024/03/03 08:22:14;;;;;;;0.20;0.20;;;;;;;13.53;79.74;75262.03;4918873;29;20033;-86
2024/03/03 08:24:42;;;;;;;0.20;0.20;;;;;;;14.05;77.72;75322.50;4904721;29;20044;-86
2024/03/03 08:27:12;;;;;;;0.20;0.20;;;;;;;14.07;76.92;75331.06;4902193;29;20060;-86
2024/03/03 08:29:38;;;;;;;0.20;0.20;;;;;;;14.24;77.87;75347.44;4916642;29;20035;-86
2024/03/03 08:32:39;;;;;;;0.20;0.20;;;;;;;14.40;77.85;75363.81;4908429;29;20116;-85
2024/03/03 08:35:11;;;;;;;0.20;0.20;;;;;;;14.86;74.05;75420.50;4844234;29;20104;-87
2024/03/03 08:37:44;;;;;;;0.20;0.20;;;;;;;16.48;67.23;75614.56;4824836;29;20037;-87
2024/03/03 08:40:36;;;;;;;0.20;0.20;;;;;;;15.79;69.10;75529.63;4825319;29;20079;-86
2024/03/03 08:43:12;;;;;;;0.20;0.20;;;;;;;15.72;69.11;75519.03;4823646;29;20043;-86
2024/03/03 08:45:49;;;;;;;0.20;0.20;;;;;;;16.07;67.95;75557.59;4832386;29;20122;-86
2024/03/03 08:48:29;;;;;;;0.20;0.20;;;;;;;16.00;65.55;75554.19;4843985;29;20046;-87
2024/03/03 08:50:55;;;;;;;0.20;0.20;;;;;;;15.19;65.25;75465.06;4838367;29;20043;-87
2024/03/03 08:53:34;;;;;;;0.20;0.20;;;;;;;15.56;66.83;75506.00;4884129;29;20065;-86
2024/03/03 08:56:34;;;;;;;0.20;0.20;;;;;;;15.14;63.07;75454.09;4896381;29;20047;-86
2024/03/03 08:59:02;;;;;;;0.20;0.20;;;;;;;15.69;65.57;75521.00;4884825;29;20025;-86
2024/03/03 09:01:28;;;;;;;0.20;0.20;;;;;;;15.17;69.57;75463.25;4898380;29;20040;-86
2024/03/03 09:03:56;;;;;;;0.20;0.20;;;;;;;15.94;63.98;75550.41;4886521;29;20033;-86
2024/03/03 09:06:26;;;;;;;0.20;0.20;;;;;;;16.38;61.86;75593.59;4882908;29;20033;-85
2024/03/03 09:08:53;;;;;;;0.20;0.20;;;;;;;16.33;61.07;75590.38;4877540;29;20049;-85
2024/03/03 09:11:27;;;;;;;0.20;0.20;;;;;;;16.71;57.18;75635.97;4878057;29;20034;-85
2024/03/03 09:13:53;;;;;;;0.20;0.20;;;;;;;16.57;60.17;75619.19;4878156;29;20051;-85
2024/03/03 09:16:37;;;;;;;0.20;0.20;;;;;;;16.51;63.68;75617.53;4880484;29;20033;-85
2024/03/03 09:19:36;;;;;;;0.20;0.20;;;;;;;16.27;64.06;75583.78;4885139;29;20029;-87
2024/03/03 09:22:14;;;;;;;0.20;0.20;;;;;;;16.20;63.82;75572.63;4885533;29;20057;-87
2024/03/03 09:25:18;;;;;;;0.20;0.20;;;;;;;16.60;64.45;75622.16;4885390;29;20038;-86
2024/03/03 09:28:05;;;;;;;0.20;0.20;;;;;;;16.52;60.35;75615.38;4885912;29;20033;-87
2024/03/03 09:34:14;;;;;;;0.20;0.20;;;;;;;16.29;59.62;75585.59;4886257;29;20058;-85
2024/03/03 09:36:47;;;;;;;0.20;0.20;;;;;;;15.27;64.90;75465.66;4885594;29;20021;-87
2024/03/03 09:40:05;;;;;;;0.22;0.22;;;;;;;15.34;67.68;75474.69;4901950;29;20054;-87
2024/03/03 09:43:02;;;;;;;0.20;0.20;;;;;;;15.67;67.29;75513.66;4886832;29;20033;-87
2024/03/03 09:46:13;;;;;;;0.20;0.20;;;;;;;16.39;65.32;75600.38;4879537;29;20049;-87
2024/03/03 09:49:14;;;;;;;0.20;0.20;;;;;;;15.89;64.35;75542.22;4886572;29;20037;-87
2024/03/03 09:52:23;;;;;;;0.20;0.20;;;;;;;16.16;65.12;75576.78;4867029;29;20017;-87
2024/03/03 09:55:30;;;;;;;0.20;0.20;;;;;;;15.95;65.64;75540.44;4886216;29;20029;-87
2024/03/03 09:58:19;;;;;;;0.20;0.20;;;;;;;15.47;67.29;75492.44;4884234;29;20064;-86
2024/03/03 10:01:31;;;;;;;0.20;0.20;;;;;;;14.53;69.66;75381.59;4884609;29;20057;-86
2024/03/03 10:07:52;;;;;;;0.20;0.20;;;;;;;14.46;72.23;75370.41;4886873;29;20068;-87
2024/03/03 10:10:43;;;;;;;0.20;0.20;;;;;;;14.84;72.67;75421.50;4869528;29;20025;-86
2024/03/03 10:13:15;;;;;;;0.20;0.20;;;;;;;15.77;64.08;75530.63;4884138;29;20046;-86
2024/03/03 10:15:55;;;;;;;0.20;0.20;;;;;;;16.41;59.86;75602.78;4877262;29;20101;-87
2024/03/03 10:18:39;;;;;;;0.20;0.20;;;;;;;16.86;56.80;75656.16;4884898;29;20026;-88
2024/03/03 10:21:41;;;;;;;0.20;0.20;;;;;;;16.99;58.40;75665.56;4869057;29;20071;-85
2024/03/03 10:24:48;;;;;;;0.20;0.20;;;;;;;16.81;57.33;75646.78;4884746;29;20042;-87
2024/03/03 10:27:22;;;;;;;0.20;0.20;;;;;;;16.85;56.70;75657.78;4868899;29;20079;-88
2024/03/03 10:30:22;;;;;;;0.20;0.20;;;;;;;16.44;57.03;75595.19;4869637;29;20017;-88
2024/03/03 10:32:51;;;;;;;0.20;0.20;;;;;;;17.09;54.55;75680.38;4866336;29;20061;-87
2024/03/03 10:35:48;;;;;;;0.20;0.20;;;;;;;17.42;54.61;75716.00;4880249;29;20048;-87
2024/03/03 10:38:34;;;;;;;0.20;0.20;;;;;;;17.32;55.01;75707.38;4877807;29;20037;-86
2024/03/03 10:40:59;;;;;;;0.20;0.20;;;;;;;18.02;52.81;75786.81;4872538;29;20030;-86
2024/03/03 10:43:25;;;;;;;0.20;0.20;;;;;;;18.15;52.44;75802.44;4875884;29;20038;-86
2024/03/03 10:46:34;;;;;;;0.30;0.30;;;;;;;17.69;51.86;75750.59;4871768;29;20060;-85
2024/03/03 10:49:06;;;;;;;0.20;0.20;;;;;;;17.80;52.96;75763.81;4856609;29;20082;-85
2024/03/03 10:51:35;;;;;;;0.20;0.20;;;;;;;18.03;50.73;75790.81;4859200;29;20022;-85
2024/03/03 10:54:01;;;;;;;0.20;0.20;;;;;;;17.94;49.96;75775.00;4874805;29;20029;-84
2024/03/03 10:56:29;;;;;;;0.20;0.20;;;;;;;17.94;50.90;75780.00;4863780;29;20055;-86
2024/03/03 10:59:28;;;;;;;0.20;0.20;;;;;;;17.69;51.29;75756.78;4864215;29;20046;-87
2024/03/03 11:02:17;;;;;;;0.20;0.20;;;;;;;17.50;50.44;75725.59;4883636;29;20025;-85
2024/03/03 11:04:52;;;;;;;0.20;0.20;;;;;;;18.22;49.67;75813.03;4863615;29;20041;-86
2024/03/03 11:07:19;;;;;;;0.20;0.20;;;;;;;16.63;53.81;75620.78;4891086;29;20056;-86
2024/03/03 11:09:59;;;;;;;0.20;0.20;;;;;;;16.40;55.22;75598.78;4882300;29;20045;-86
2024/03/03 11:12:27;;;;;;;0.20;0.20;;;;;;;16.89;53.93;75654.19;4900486;29;20058;-85
2024/03/03 11:15:07;;;;;;;0.20;0.20;;;;;;;17.57;52.94;75733.38;4897324;29;20027;-86
2024/03/03 11:18:01;;;;;;;0.20;0.20;;;;;;;17.21;53.11;75688.59;4886662;29;20028;-85
2024/03/03 11:20:58;;;;;;;0.20;0.20;;;;;;;16.92;54.13;75659.97;4890912;29;20060;-86
2024/03/03 11:23:59;;;;;;;0.20;0.20;;;;;;;17.00;53.41;75667.38;4887465;29;20052;-88
2024/03/03 11:26:49;;;;;;;0.20;0.20;;;;;;;17.05;51.64;75678.38;4883939;29;20041;-87
2024/03/03 11:29:24;;;;;;;0.20;0.20;;;;;;;15.73;54.94;75520.25;4883713;29;20029;-88
2024/03/03 11:32:22;;;;;;;0.20;0.20;;;;;;;16.68;53.35;75629.56;4871491;29;20025;-86
2024/03/03 11:35:24;;;;;;;0.20;0.20;;;;;;;15.54;56.72;75497.44;4871404;29;20061;-86
2024/03/03 11:38:07;;;;;;;0.20;0.20;;;;;;;16.22;54.86;75578.38;4901253;29;20040;-86
2024/03/03 11:40:48;;;;;;;0.20;0.20;;;;;;;16.45;54.67;75608.16;4857414;29;20045;-88
2024/03/03 11:43:55;;;;;;;0.20;0.20;;;;;;;16.86;53.65;75650.00;4866187;29;20116;-87
2024/03/03 11:46:56;;;;;;;0.20;0.20;;;;;;;16.45;54.28;75607.56;4866702;29;20273;-87
2024/03/03 11:50:16;;;;;;;0.20;0.20;;;;;;;16.32;55.08;75595.38;4881591;29;20044;-86
2024/03/03 11:52:54;;;;;;;0.20;0.20;;;;;;;16.65;54.77;75628.16;4847402;29;20045;-86
2024/03/03 11:55:51;;;;;;;0.20;0.20;;;;;;;16.56;54.39;75617.38;4864186;29;20026;-84
2024/03/03 11:58:32;;;;;;;0.20;0.20;;;;;;;16.37;55.19;75595.19;4856985;29;20047;-86
2024/03/03 12:01:55;;;;;;;0.20;0.20;;;;;;;15.61;55.29;75506.44;4863517;29;20042;-87
2024/03/03 12:04:59;;;;;;;0.20;0.20;;;;;;;16.17;55.56;75572.38;4850153;29;20025;-86
2024/03/03 12:11:56;;;;;;;0.28;0.28;;;;;;;16.48;52.98;75613.97;4890671;29;20122;-86
2024/03/03 12:14:44;;;;;;;0.20;0.20;;;;;;;16.75;50.31;75642.97;4899602;29;20037;-87
2024/03/03 12:17:11;;;;;;;0.20;0.20;;;;;;;16.83;51.98;75643.59;4882047;29;20132;-86
2024/03/03 12:19:57;;;;;;;0.20;0.20;;;;;;;16.58;53.28;75617.59;4899483;29;20025;-86
2024/03/03 12:22:35;;;;;;;0.20;0.20;;;;;;;16.51;53.13;75611.97;4899879;29;20041;-86
2024/03/03 12:25:16;;;;;;;0.20;0.20;;;;;;;16.49;51.95;75615.16;4898749;29;20049;-86
2024/03/03 12:28:05;;;;;;;0.20;0.20;;;;;;;16.27;53.08;75583.19;4884675;29;20017;-86
2024/03/03 12:30:56;;;;;;;0.20;0.20;;;;;;;16.43;52.68;75605.16;4901596;29;20154;-84
2024/03/03 12:33:44;;;;;;;0.20;0.20;;;;;;;16.54;52.04;75615.56;4901925;29;20017;-86
2024/03/03 12:36:22;;;;;;;0.20;0.20;;;;;;;16.09;53.06;75562.81;4889230;29;20076;-87
2024/03/03 12:39:39;;;;;;;0.20;0.20;;;;;;;16.46;53.05;75603.78;4888433;29;20115;-87
2024/03/03 12:46:23;;;;;;;0.20;0.20;;;;;;;15.79;54.87;75526.84;4896197;29;20028;-86
2024/03/03 12:49:17;;;;;;;0.20;0.20;;;;;;;15.62;54.59;75504.84;4905032;29;20037;-86
2024/03/03 12:52:37;;;;;;;0.20;0.20;;;;;;;15.88;53.22;75532.06;4888551;29;20551;-86
2024/03/03 12:55:44;;;;;;;0.20;0.20;;;;;;;16.29;54.26;75585.59;4903866;29;20136;-86
2024/03/03 12:58:49;;;;;;;0.20;0.20;;;;;;;16.08;53.72;75561.00;4906088;29;20045;-86
2024/03/03 13:01:31;;;;;;;0.20;0.20;;;;;;;16.23;52.91;75578.97;4923603;29;20072;-85
2024/03/03 13:05:05;;;;;;;0.20;0.20;;;;;;;16.20;53.70;75572.63;4919490;29;20040;-86
2024/03/03 13:08:15;;;;;;;0.20;0.20;;;;;;;16.23;53.27;75576.78;4889229;29;20039;-86
2024/03/03 13:11:14;;;;;;;0.20;0.20;;;;;;;16.64;52.24;75624.78;4920301;29;20065;-87
2024/03/03 13:13:44;;;;;;;0.20;0.20;;;;;;;16.40;53.13;75601.56;4922477;29;20105;-86
2024/03/03 13:16:29;;;;;;;0.20;0.20;;;;;;;16.10;52.94;75566.78;4919315;29;20065;-87
2024/03/03 13:19:34;;;;;;;0.20;0.20;;;;;;;16.42;52.61;75595.59;4916778;29;20139;-86
2024/03/03 13:22:44;;;;;;;0.20;0.20;;;;;;;16.61;51.59;75623.97;4923552;29;20036;-86
2024/03/03 13:25:27;;;;;;;0.20;0.20;;;;;;;16.48;50.71;75608.38;4900654;29;20036;-86
2024/03/03 13:28:33;;;;;;;0.20;0.20;;;;;;;16.20;53.70;75575.41;4907505;29;20043;-86
2024/03/03 13:31:29;;;;;;;0.20;0.20;;;;;;;16.36;53.63;75591.19;4913638;29;20100;-85
2024/03/03 13:34:30;;;;;;;0.20;0.20;;;;;;;15.90;52.71;75540.63;4900158;29;20045;-87
2024/03/03 13:37:35;;;;;;;0.20;0.20;;;;;;;16.07;53.85;75554.22;4894959;29;20052;-86
2024/03/03 13:40:31;;;;;;;0.20;0.20;;;;;;;16.34;54.78;75594.38;4905606;29;20013;-87
2024/03/03 13:43:47;;;;;;;0.20;0.20;;;;;;;16.83;51.69;75649.16;4891075;29;20024;-87
2024/03/03 13:46:29;;;;;;;0.20;0.20;;;;;;;16.69;50.64;75627.38;4887713;29;20029;-86
2024/03/03 13:49:24;;;;;;;0.20;0.20;;;;;;;16.72;50.92;75640.00;4901172;29;20047;-87
2024/03/03 13:52:16;;;;;;;0.20;0.20;;;;;;;17.02;50.22;75674.78;4884817;29;20025;-86
2024/03/03 13:54:43;;;;;;;0.20;0.20;;;;;;;16.69;51.03;75633.56;4896548;29;20036;-86
2024/03/03 13:57:09;;;;;;;0.20;0.20;;;;;;;16.84;50.53;75651.00;4878238;29;20501;-86
2024/03/03 13:59:43;;;;;;;0.20;0.20;;;;;;;16.77;50.80;75643.16;4883585;29;20036;-87
2024/03/03 14:02:21;;;;;;;0.20;0.20;;;;;;;16.37;53.51;75600.75;4887561;29;20036;-86
2024/03/03 14:05:05;;;;;;;0.20;0.20;;;;;;;16.70;53.03;75634.75;4898603;29;20510;-85
2024/03/03 14:07:34;;;;;;;0.20;0.20;;;;;;;16.30;52.87;75587.41;4921087;29;20044;-87
2024/03/03 14:10:08;;;;;;;0.20;0.20;;;;;;;16.49;53.75;75612.97;4919593;29;20274;-86
2024/03/03 14:12:45;;;;;;;0.20;0.20;;;;;;;16.32;53.03;75591.97;4866409;29;20093;-87
2024/03/03 14:15:36;;;;;;;0.20;0.20;;;;;;;16.40;52.75;75601.56;4889453;29;20054;-86
2024/03/03 14:18:07;;;;;;;0.20;0.20;;;;;;;16.00;52.97;75551.41;4903331;29;20406;-86
2024/03/03 14:20:36;;;;;;;0.20;0.20;;;;;;;15.94;53.89;75544.81;4906298;29;20067;-86
2024/03/03 14:23:06;;;;;;;0.20;0.20;;;;;;;15.84;54.72;75532.84;4892063;29;20025;-86
2024/03/03 14:25:35;;;;;;;0.20;0.20;;;;;;;15.60;55.60;75505.22;4918263;29;20020;-86
2024/03/03 14:28:39;;;;;;;0.20;0.20;;;;;;;15.71;54.97;75512.25;4892476;29;20045;-87
2024/03/03 14:31:27;;;;;;;0.20;0.20;;;;;;;16.02;54.90;75554.41;4903276;29;20045;-86
2024/03/03 14:34:45;;;;;;;0.20;0.20;;;;;;;16.08;56.20;75564.38;4904265;29;20041;-86
2024/03/03 14:38:02;;;;;;;0.20;0.20;;;;;;;15.82;55.50;75530.41;4888535;29;20069;-86
2024/03/03 14:41:24;;;;;;;0.20;0.20;;;;;;;15.96;57.03;75541.63;4894562;29;20052;-85
2024/03/03 14:44:36;;;;;;;0.20;0.20;;;;;;;15.98;56.14;75546.84;4906790;29;20048;-86
2024/03/03 14:47:20;;;;;;;0.20;0.20;;;;;;;15.80;55.96;75528.63;4873897;29;20079;-87
2024/03/03 14:50:23;;;;;;;0.20;0.20;;;;;;;15.86;55.55;75535.81;4861696;29;20029;-87
2024/03/03 14:53:19;;;;;;;0.20;0.20;;;;;;;15.55;56.05;75502.00;4823363;29;20054;-86
2024/03/03 14:56:32;;;;;;;0.20;0.20;;;;;;;15.53;55.98;75496.84;4876284;29;20047;-83
2024/03/03 14:59:04;;;;;;;0.10;0.10;;;;;;;15.86;56.28;75535.81;4882518;29;20041;-87
2024/03/03 15:02:16;;;;;;;0.20;0.20;;;;;;;15.88;55.88;75537.63;4882887;29;20077;-86
2024/03/03 15:05:01;;;;;;;0.20;0.20;;;;;;;15.53;55.47;75493.44;4882948;29;20026;-86
2024/03/03 15:07:51;;;;;;;0.20;0.20;;;;;;;15.57;54.73;75501.63;4868240;29;20085;-86
2024/03/03 15:20:41;;;;;;;0.20;0.20;;;;;;;15.37;56.30;75474.88;4864960;29;20095;-86
2024/03/03 15:23:54;;;;;;;0.20;0.20;;;;;;;15.35;58.18;75480.84;4849753;29;20055;-86
2024/03/03 15:26:33;;;;;;;0.20;0.20;;;;;;;15.08;59.70;75444.13;4863810;29;20030;-86
2024/03/03 15:29:34;;;;;;;0.20;0.20;;;;;;;15.08;60.40;75446.91;4864300;29;20056;-86
2024/03/03 15:32:28;;;;;;;0.20;0.20;;;;;;;14.95;61.70;75428.53;4858895;29;20046;-85
2024/03/03 15:35:10;;;;;;;0.20;0.20;;;;;;;15.05;64.29;75443.28;4865275;29;20487;-85
2024/03/03 15:37:46;;;;;;;0.20;0.20;;;;;;;14.80;65.40;75416.13;4856595;29;20090;-83
2024/03/03 15:41:01;;;;;;;0.20;0.20;;;;;;;14.74;65.69;75403.38;4856840;29;20046;-87
2024/03/03 15:43:45;;;;;;;0.20;0.20;;;;;;;14.59;67.63;75386.59;4880202;29;20036;-87
2024/03/03 15:49:23;;;;;;;0.20;0.20;;;;;;;14.30;67.37;75357.41;4903229;29;20490;-86
2024/03/03 15:52:04;;;;;;;0.20;0.20;;;;;;;14.41;68.34;75365.00;4882999;29;20041;-87
2024/03/03 15:54:53;;;;;;;0.20;0.20;;;;;;;14.27;67.98;75348.84;4891926;29;20090;-87
2024/03/03 15:57:34;;;;;;;0.20;0.20;;;;;;;14.29;68.25;75350.66;4889769;29;20052;-85
2024/03/03 16:00:00;;;;;;;0.20;0.20;;;;;;;14.53;68.47;75379.41;4879884;29;20037;-85
2024/03/03 16:02:26;;;;;;;0.20;0.20;;;;;;;14.47;68.44;75369.44;4862437;29;20021;-86
2024/03/03 16:04:53;;;;;;;0.20;0.20;;;;;;;14.31;68.97;75355.81;4890963;29;20053;-87
2024/03/03 16:07:22;;;;;;;0.20;0.20;;;;;;;14.42;69.07;75372.38;4895416;29;20037;-85
2024/03/03 16:09:52;;;;;;;0.20;0.20;;;;;;;14.43;68.95;75364.63;4881055;29;20044;-86
2024/03/03 16:12:19;;;;;;;0.20;0.20;;;;;;;14.33;69.62;75361.00;4897128;29;20052;-85
2024/03/03 16:14:46;;;;;;;0.20;0.20;;;;;;;14.38;70.42;75361.41;4904036;29;20044;-86
2024/03/03 16:17:11;;;;;;;0.20;0.20;;;;;;;14.28;70.61;75349.44;4887065;29;20028;-86
2024/03/03 16:19:45;;;;;;;0.20;0.20;;;;;;;14.26;70.92;75347.03;4887974;29;20027;-85
2024/03/03 16:23:00;;;;;;;0.20;0.20;;;;;;;13.83;72.41;75305.09;4902831;29;20032;-87
2024/03/03 16:25:36;;;;;;;0.20;0.20;;;;;;;13.77;72.78;75289.56;4913072;29;20037;-87
2024/03/03 16:28:56;;;;;;;0.20;0.20;;;;;;;13.83;73.09;75296.75;4924029;29;20051;-87
2024/03/03 16:32:31;;;;;;;0.20;0.20;;;;;;;13.56;75.22;75265.63;4905783;29;20106;-86
2024/03/03 16:35:35;;;;;;;0.20;0.20;;;;;;;13.60;77.67;75269.81;4902507;29;20050;-86
2024/03/03 16:39:15;;;;;;;0.20;0.20;;;;;;;13.48;79.08;75256.06;4889972;29;20017;-87
2024/03/03 16:45:35;;;;;;;0.20;0.20;;;;;;;13.37;78.96;75245.66;4865701;29;20149;-87
2024/03/03 16:48:57;;;;;;;0.20;0.20;;;;;;;12.85;79.89;75185.19;4885356;29;20037;-87
2024/03/03 16:55:06;;;;;;;0.30;0.30;;;;;;;13.12;81.04;75216.31;4849836;29;20128;-86
2024/03/03 16:57:34;;;;;;;0.20;0.20;;;;;;;13.13;81.31;75214.72;4884034;29;20045;-86
2024/03/03 17:00:19;;;;;;;0.20;0.20;;;;;;;13.10;81.83;75217.31;4888019;29;20044;-87
2024/03/03 17:02:56;;;;;;;0.20;0.20;;;;;;;12.95;81.31;75193.78;4897966;29;20049;-86
2024/03/03 17:05:42;;;;;;;0.20;0.20;;;;;;;13.09;82.33;75210.53;4899831;29;20029;-86
2024/03/03 17:08:16;;;;;;;0.20;0.20;;;;;;;12.76;82.49;75173.81;4904335;29;20052;-87
2024/03/03 17:10:56;;;;;;;0.20;0.20;;;;;;;12.71;82.91;75171.22;4901518;29;20079;-87
2024/03/03 17:13:39;;;;;;;0.20;0.20;;;;;;;12.66;83.38;75161.88;4888591;29;20040;-87
2024/03/03 17:16:14;;;;;;;0.20;0.20;;;;;;;12.77;83.79;75172.25;4919252;29;20029;-87
2024/03/03 17:18:56;;;;;;;0.20;0.20;;;;;;;13.06;84.23;75209.72;4918338;29;20017;-87
2024/03/03 17:21:23;;;;;;;0.20;0.20;;;;;;;12.96;84.29;75200.53;4884762;29;20021;-87
2024/03/03 17:23:56;;;;;;;0.20;0.20;;;;;;;12.82;84.77;75184.38;4906296;29;20029;-87
2024/03/03 17:26:35;;;;;;;0.20;0.20;;;;;;;13.03;84.64;75202.75;4903384;29;20078;-87
2024/03/03 17:29:03;;;;;;;0.20;0.20;;;;;;;12.75;83.80;75169.88;4898634;29;20096;-86
2024/03/03 17:31:35;;;;;;;0.20;0.20;;;;;;;12.64;84.16;75156.69;4901362;29;20068;-86
2024/03/03 17:34:08;;;;;;;0.20;0.20;;;;;;;12.98;81.01;75200.16;4901028;29;20045;-86
2024/03/03 17:36:48;;;;;;;0.20;0.20;;;;;;;12.96;81.43;75194.38;4885848;29;20073;-86
2024/03/03 17:39:16;;;;;;;0.20;0.20;;;;;;;12.77;80.85;75172.25;4901789;29;20067;-86